In Ko Pah (444) Station Data

Red Flag Warning: No
Fire Weather Zone: 262
SDGE Region: Mountain Empire
Lat/Lon: 32.636/-116.118

Observations

Time Wind Speed/Gust Temp(F) RH Fuel Moist Fuel Temp(F) Dewpt(F) Tmax(F) Tmin(F) Accum Precip 10-min Precip SL Press(mb)
2/27 11:40pm 238 12 G 19 46° 92% - - 44° 49.5° 44° - - 1011.0
2/27 11:20pm 235 11 G 17 46° 89% - - 43° 49.5° 44° - - 1011.0
2/27 11:10pm 234 11 G 19 46° 89% - - 43° 49.5° 44° - - 1011.0
2/27 11:00pm 233 12 G 20 47° 88% - - 43° 49.5° 44° - - 1011.0
2/27 10:50pm 233 12 G 21 47° 89% - - 43° 49.5° 44° - - 1011.0
2/27 10:40pm 236 13 G 22 47° 89% - - 43° 49.5° 44° - - 1011.0
2/27 10:30pm 236 13 G 22 47° 89% - - 43° 49.5° 44° - - 1011.0
2/27 10:20pm 234 14 G 23 46° 89% - - 43° 49.5° 44° - - 1011.0
2/27 10:10pm 236 13 G 22 46° 90% - - 43° 49.5° 44° - - 1011.0
2/27 10:00pm 237 14 G 23 46° 91% - - 44° 49.5° 44° - - 1011.0
2/27 9:50pm 236 15 G 24 46° 92% - - 44° 49.5° 44° - - 1011.0
2/27 9:40pm 238 15 G 25 46° 92% - - 44° 49.5° 44° - - 1011.0
2/27 9:30pm 234 17 G 27 46° 93% - - 44° 49.5° 44° - - 1011.0
2/27 9:20pm 236 16 G 24 46° 94% - - 44° 49.5° 44° - - 1011.0
2/27 9:10pm 234 16 G 25 46° 93% - - 44° 49.5° 44° - - 1011.0
2/27 9:00pm 235 17 G 28 46° 93% - - 44° 49.5° 44° - - 1011.0
2/27 8:50pm 237 17 G 25 46° 93% - - 44° 49.5° 44° - - 1011.0
2/27 8:40pm 234 18 G 28 46° 91% - - 44° 49.5° 44° - - 1011.0
2/27 8:30pm 236 19 G 28 46° 90% - - 44° 49.5° 44° - - 1010.0
2/27 8:20pm 236 19 G 29 46° 90% - - 44° 49.5° 44° - - 1010.0
2/27 8:10pm 235 16 G 24 46° 90% - - 43° 49.5° 44° - - 1010.0
2/27 8:00pm 237 17 G 26 46° 91% - - 43° 49.5° 44° - - 1010.0
2/27 7:50pm 236 17 G 27 46° 91% - - 43° 49.5° 44° - - 1011.0
2/27 7:40pm 237 17 G 27 46° 91% - - 43° 49.5° 44° - - 1011.0
2/27 7:30pm 238 17 G 26 46° 91% - - 43° 49.5° 44° - - 1011.0
2/27 7:20pm 235 16 G 26 46° 91% - - 43° 49.5° 44° - - 1011.0
2/27 7:10pm 233 15 G 24 45° 92% - - 43° 49.5° 44° - - 1011.0
2/27 7:00pm 234 13 G 23 45° 92% - - 43° 49.5° 44° - - 1011.0
2/27 6:50pm 232 12 G 19 45° 90% - - 42° 49.5° 44° - - 1011.0
2/27 6:40pm 230 12 G 23 45° 91% - - 43° 49.5° 44° - - 1012.0
2/27 6:30pm 230 13 G 19 45° 93% - - 43° 49.5° 44° - - 1012.0
2/27 6:20pm 230 13 G 20 45° 94% - - 43° 49.5° 44° - - 1012.0
2/27 6:10pm 231 13 G 22 45° 94% - - 43° 49.5° 44° - - 1012.0
2/27 6:00pm 232 13 G 21 45° 94% - - 44° 49.5° 44° - - 1012.0
2/27 5:50pm 235 13 G 22 45° 93% - - 44° 49.5° 44° - - 1012.0
2/27 5:40pm 230 13 G 22 46° 93% - - 44° 49.5° 44° - - 1012.0
2/27 5:30pm 228 12 G 20 45° 94% - - 44° 49.5° 44° - - 1012.0
2/27 5:20pm 226 12 G 20 45° 95% - - 44° 49.5° 44° - - 1012.0
2/27 5:10pm 229 14 G 21 45° 94% - - 44° 49.5° 44° - - 1012.0
2/27 5:00pm 231 16 G 26 46° 95% - - 45° 49.5° 44° - - 1012.0
2/27 4:50pm 233 14 G 21 46° 96% - - 45° 49.5° 44° - - 1012.0
2/27 4:40pm 240 14 G 23 46° 96% - - 45° 49.5° 44° - - 1012.0
2/27 4:30pm 241 17 G 26 46° 96% - - 45° 49.5° 44° - - 1012.0
2/27 4:20pm 236 14 G 21 47° 95% - - 45° 49.5° 44° - - 1012.0
2/27 4:10pm 236 17 G 26 47° 95% - - 45° 49.5° 44° - - 1011.0
2/27 4:00pm 236 17 G 25 47° 96% - - 46° 49.5° 44° - - 1011.0
2/27 3:50pm 239 16 G 26 46° 96% - - 45° 49.5° 44° - - 1011.0
2/27 3:40pm 234 16 G 26 46° 96% - - 45° 49.5° 44° - - 1011.0
2/27 3:30pm 237 14 G 21 46° 96% - - 45° 49.5° 44° - - 1012.0
2/27 3:20pm 238 16 G 24 46° 95% - - 45° 49.5° 44° - - 1012.0
2/27 3:10pm 236 15 G 23 46° 96% - - 45° 49.5° 44° - - 1012.0
2/27 3:00pm 238 14 G 22 46° 96% - - 45° 49.5° 44° - - 1012.0
2/27 2:50pm 234 13 G 23 46° 96% - - 45° 49.5° 44° - - 1012.0
2/27 2:40pm 233 13 G 20 46° 96% - - 45° 49.5° 44° - - 1012.0
2/27 2:30pm 233 12 G 22 46° 96% - - 45° 49.5° 44° - - 1012.0
2/27 2:20pm 232 12 G 22 46° 96% - - 45° 49.5° 44° - - 1013.0
2/27 2:10pm 230 14 G 21 46° 95% - - 45° 49.5° 44° - - 1013.0
2/27 2:00pm 231 15 G 23 46° 95% - - 45° 49.5° 44° - - 1013.0
2/27 1:50pm 234 16 G 26 47° 95% - - 46° 49.5° 44° - - 1012.0
2/27 1:40pm 235 16 G 23 47° 94% - - 46° 49.5° 44° - - 1012.0
2/27 1:30pm 233 17 G 25 48° 93% - - 46° 49.5° 44° - - 1012.0
2/27 1:20pm 237 17 G 27 48° 94% - - 46° 49.5° 44° - - 1012.0
2/27 1:10pm 235 16 G 28 48° 93% - - 46° 49.5° 44° - - 1012.0
2/27 1:00pm 235 16 G 27 48° 93% - - 46° 49.5° 44° - - 1012.0
2/27 12:50pm 233 17 G 30 48° 94% - - 47° 49.5° 44° - - 1012.0
2/27 12:40pm 231 16 G 25 48° 95% - - 47° 49.5° 44° - - 1012.0
2/27 12:30pm 235 16 G 26 49° 95% - - 47° 49.5° 44° - - 1012.0
2/27 12:20pm 238 16 G 24 49° 95% - - 47° 49.5° 44° - - 1012.0
2/27 12:10pm 235 17 G 29 49° 95% - - 47° 49.5° 44° - - 1012.0
2/27 12:00pm 234 17 G 26 49° 95% - - 47° 49.5° 44° - - 1012.0
2/27 11:50am 236 18 G 29 49° 94% - - 47° 49.5° 44° - - 1012.0
2/27 11:40am 234 18 G 32 49° 93% - - 47° 49.5° 44° - - 1012.0
2/27 11:30am 233 16 G 25 49° 93% - - 47° 49.5° 44° - - 1012.0
2/27 11:20am 231 15 G 26 49° 93% - - 47° 49.5° 44° - - 1013.0
2/27 11:10am 234 16 G 26 49° 93% - - 47° 49.5° 44° - - 1013.0
2/27 11:00am 232 17 G 27 49° 93% - - 47° 49.5° 44° - - 1013.0
2/27 10:50am 232 17 G 28 49° 92% - - 47° 49.5° 44° - - 1013.0
2/27 10:40am 235 18 G 30 49° 92% - - 47° 49.5° 44° - - 1013.0
2/27 10:30am 231 15 G 23 49° 93% - - 47° 49.5° 44° - - 1013.0
2/27 10:20am 232 16 G 28 49° 93% - - 47° 49.5° 44° - - 1013.0
2/27 10:10am 233 14 G 25 49° 94% - - 48° 49.5° 44° - - 1012.0
2/27 10:00am 233 17 G 28 49° 95% - - 47° 49.5° 44° - - 1013.0
2/27 9:50am 235 17 G 27 48° 96% - - 47° 49.5° 44° - - 1013.0
2/27 9:40am 239 18 G 28 48° 96% - - 47° 49.5° 44° - - 1013.0
2/27 9:30am 238 20 G 31 48° 97% - - 47° 49.5° 44° - - 1013.0
2/27 9:20am 237 17 G 26 48° 97% - - 47° 49.5° 44° - - 1013.0
2/27 9:10am 237 17 G 28 48° 97% - - 47° 49.5° 44° - - 1013.0
2/27 9:00am 237 17 G 23 48° 96% - - 47° 49.5° 44° - - 1013.0
2/27 8:50am 240 16 G 22 48° 96% - - 47° 49.5° 44° - - 1013.0
2/27 8:40am 239 17 G 28 48° 95% - - 47° 49.5° 44° - - 1013.0
2/27 8:30am 243 16 G 25 49° 95% - - 47° 49.5° 44° - - 1013.0
2/27 8:20am 239 14 G 22 49° 95% - - 48° 49.5° 44° - - 1013.0
2/27 8:10am 233 12 G 19 49° 95% - - 48° 49.3° 44° - - 1012.0
2/27 8:00am 237 13 G 20 49° 96% - - 47° 48.8° 44° - - 1012.0
2/27 7:50am 235 14 G 22 48° 96% - - 47° 48.5° 44° - - 1012.0
2/27 7:40am 236 14 G 23 48° 96% - - 47° 48.1° 44° - - 1012.0
2/27 7:30am 238 14 G 23 47° 97% - - 46° 47.5° 44° - - 1012.0
2/27 7:20am 235 15 G 22 47° 97% - - 46° 47.5° 44° - - 1012.0
2/27 7:10am 233 14 G 22 47° 97% - - 46° 47.4° 44° - - 1012.0
2/27 7:00am 233 14 G 23 47° 97% - - 46° 47.4° 44° - - 1012.0
2/27 6:50am 232 14 G 24 47° 96% - - 46° 47.4° 44° - - 1012.0
2/27 6:40am 235 15 G 25 47° 96% - - 46° 47.4° 44° - - 1012.0
2/27 6:30am 235 15 G 24 47° 95% - - 46° 47.4° 44° - - 1012.0
2/27 6:20am 232 13 G 21 47° 96% - - 46° 47.2° 44° - - 1012.0
2/27 6:10am 230 13 G 28 47° 97% - - 46° 47.2° 44° - - 1011.0
2/27 6:00am 230 13 G 20 47° 97% - - 46° 47.2° 44° - - 1011.0
2/27 5:50am 232 12 G 21 47° 97% - - 46° 47.2° 44° - - 1012.0
2/27 5:40am 232 12 G 19 47° 97% - - 46° 47.2° 44° - - 1012.0
2/27 5:30am 232 12 G 21 46° 98% - - 46° 47.2° 44° - - 1012.0
2/27 5:20am 232 12 G 19 46° 98% - - 46° 47.2° 44° - - 1012.0
2/27 5:10am 231 15 G 25 47° 97% - - 46° 47.2° 44° - - 1012.0
2/27 5:00am 235 14 G 22 47° 97% - - 46° 47.2° 44° - - 1012.0
2/27 4:50am 233 15 G 23 47° 97% - - 46° 47.2° 44° - - 1012.0
2/27 4:40am 233 14 G 22 47° 97% - - 46° 47.2° 44° - - 1012.0
2/27 4:30am 234 14 G 20 47° 97% - - 46° 47.2° 44° - - 1012.0
2/27 4:20am 234 14 G 22 47° 96% - - 46° 47.2° 44° - - 1012.0
2/27 4:10am 235 13 G 21 47° 96% - - 46° 47.2° 44° - - 1012.0
2/27 4:00am 228 12 G 20 47° 96% - - 46° 47.1° 44° - - 1012.0
2/27 3:50am 230 12 G 19 47° 96% - - 46° 47° 44° - - 1012.0
2/27 3:40am 230 12 G 20 46° 97% - - 46° 46.8° 44° - - 1012.0
2/27 3:30am 230 12 G 19 46° 97% - - 46° 46.5° 44° - - 1012.0
2/27 3:20am 231 11 G 19 46° 97% - - 46° 46.5° 44° - - 1012.0
2/27 3:10am 232 12 G 21 46° 98% - - 45° 46.3° 44° - - 1013.0
2/27 3:00am 233 12 G 18 46° 97% - - 45° 46.2° 44° - - 1013.0
2/27 2:50am 231 12 G 20 46° 97% - - 45° 46.2° 44° - - 1013.0
2/27 2:40am 230 14 G 23 46° 97% - - 45° 46.2° 44° - - 1013.0
2/27 2:30am 232 12 G 22 46° 97% - - 45° 46.1° 44° - - 1013.0
2/27 2:20am 228 15 G 23 46° 97% - - 45° 45.9° 44° - - 1013.0
2/27 2:10am 232 15 G 23 46° 97% - - 45° 45.9° 44° - - 1013.0
2/27 2:00am 227 15 G 25 46° 97% - - 45° 45.9° 44° - - 1013.0
2/27 1:50am 232 15 G 24 46° 97% - - 45° 45.8° 44° - - 1013.0
2/27 1:40am 229 14 G 23 46° 97% - - 45° 45.7° 44° - - 1013.0
2/27 1:30am 230 14 G 24 46° 97% - - 45° 45.7° 44° - - 1014.0
2/27 1:20am 229 13 G 22 45° 97% - - 45° 45.6° 44° - - 1014.0
2/27 1:10am 230 15 G 24 45° 98% - - 45° 45.5° 44° - - 1014.0
2/27 1:00am 230 13 G 23 45° 98% - - 45° 45.5° 44° - - 1014.0
2/27 12:50am 235 16 G 23 45° 98% - - 45° 45.3° 44° - - 1014.0
2/27 12:40am 232 14 G 22 45° 99% - - 45° 45.1° 44° - - 1014.0
2/27 12:30am 230 13 G 20 45° 99% - - 45° 45° 44° - - 1014.0
2/27 12:20am 230 15 G 26 45° 100% - - 44° 44.8° 44° - - 1014.0
2/27 12:10am 237 14 G 22 44° 100% - - 44° 44.6° 44° - - 1014.0
2/27 12:00am 240 16 G 23 44° 100% - - 44° 48.4° 39° - - 1014.0
2/26 11:50pm 239 16 G 23 44° 100% - - 44° 48.4° 39° - - 1014.0
2/26 11:40pm 236 16 G 24 44° 100% - - 43° 48.4° 39° - - 1014.0
2/26 11:30pm 233 16 G 23 43° 100% - - 43° 48.4° 39° - - 1014.0
2/26 11:20pm 235 16 G 25 43° 100% - - 43° 48.4° 39° - - 1014.0
2/26 11:10pm 236 16 G 23 43° 99% - - 43° 48.4° 39° - - 1014.0
2/26 11:00pm 238 15 G 24 43° 99% - - 43° 48.4° 39° - - 1014.0
2/26 10:50pm 241 16 G 25 43° 99% - - 43° 48.4° 39° - - 1014.0
2/26 10:40pm 237 16 G 25 43° 99% - - 42° 48.4° 39° - - 1014.0
2/26 10:30pm 240 16 G 24 42° 99% - - 42° 48.4° 39° - - 1014.0
2/26 10:20pm 240 17 G 25 42° 99% - - 42° 48.4° 39° - - 1014.0
2/26 10:10pm 239 19 G 26 42° 99% - - 42° 48.4° 39° - - 1014.0
2/26 10:00pm 240 19 G 27 42° 98% - - 42° 48.4° 39° - - 1015.0
2/26 9:50pm 238 20 G 30 42° 98% - - 42° 48.4° 39° - - 1015.0
2/26 9:40pm 237 18 G 26 42° 97% - - 41° 48.4° 39° - - 1015.0
2/26 9:30pm 237 19 G 28 42° 95% - - 41° 48.4° 39° - - 1015.0
2/26 9:20pm 236 19 G 29 42° 93% - - 41° 48.4° 39° - - 1015.0
2/26 9:10pm 240 19 G 28 43° 91% - - 40° 48.4° 39° - - 1015.0
2/26 9:00pm 235 20 G 32 43° 90% - - 40° 48.4° 39° - - 1015.0
2/26 8:50pm 234 19 G 31 43° 89% - - 40° 48.4° 39° - - 1015.0
2/26 8:40pm 235 23 G 32 43° 90% - - 40° 48.4° 39° - - 1015.0
2/26 8:30pm 238 20 G 32 43° 95% - - 42° 48.4° 39° - - 1014.0
2/26 8:20pm 244 20 G 30 43° 92% - - 41° 48.4° 39° - - 1014.0
2/26 8:10pm 243 20 G 30 43° 89% - - 40° 48.4° 39° - - 1014.0
2/26 8:00pm 240 21 G 30 43° 87% - - 40° 48.4° 39° - - 1014.0
2/26 7:50pm 236 20 G 33 43° 89% - - 40° 48.4° 39° - - 1014.0
2/26 7:40pm 235 19 G 28 44° 90% - - 41° 48.4° 39° - - 1014.0
2/26 7:30pm 233 18 G 26 44° 88% - - 40° 48.4° 39° - - 1015.0
2/26 7:20pm 233 15 G 25 43° 92% - - 41° 48.4° 39° - - 1015.0
2/26 7:10pm 234 14 G 23 43° 90% - - 41° 48.4° 39° - - 1015.0
2/26 7:00pm 237 15 G 22 43° 89% - - 40° 48.4° 39° - - 1015.0
2/26 6:50pm 236 16 G 23 43° 87% - - 40° 48.4° 39° - - 1015.0
2/26 6:40pm 236 16 G 25 43° 85% - - 39° 48.4° 39° - - 1015.0
2/26 6:30pm 235 19 G 27 43° 84% - - 39° 48.4° 39° - - 1015.0
2/26 6:20pm 236 19 G 28 43° 82% - - 38° 48.4° 39° - - 1015.0
2/26 6:10pm 236 21 G 30 43° 83% - - 38° 48.4° 39° - - 1015.0
2/26 6:00pm 241 20 G 30 43° 81% - - 38° 48.4° 39° - - 1014.0
2/26 5:50pm 237 21 G 31 44° 81% - - 38° 48.4° 39° - - 1014.0
2/26 5:40pm 238 23 G 35 44° 78% - - 37° 48.4° 39° - - 1014.0
2/26 5:30pm 237 23 G 33 44° 74% - - 37° 48.4° 39° - - 1014.0
2/26 5:20pm 239 24 G 37 44° 75% - - 37° 48.4° 39° - - 1014.0
2/26 5:10pm 239 21 G 36 45° 77% - - 38° 48.4° 39° - - 1014.0
2/26 5:00pm 235 21 G 32 45° 74% - - 37° 48.4° 39° - - 1013.0